Time;durP1;ratioP1;P1;durP2;ratioP2;P2;SDS_P1;SDS_P2;PMS_P1;PMS_P2;Temp;Humidity;BMP_temperature;BMP_pressure;BME280_temperature;BME280_humidity;BME280_pressure;Samples;Min_cycle;Max_cycle;Signal;HPM_P1;HPM_P2
2022/07/14 00:01:09;;;;;;;5.83;4.10;;;;;;;18.31;100.00;66116.94;5096335;28;20235;-74
2022/07/14 00:03:36;;;;;;;4.70;4.40;;;;;;;18.23;100.00;66110.66;5095663;28;20231;-74
2022/07/14 00:06:03;;;;;;;5.60;5.00;;;;;;;;;;5113943;28;20563;-74
2022/07/14 00:08:29;;;;;;;4.97;4.50;;;;;;;18.14;100.00;66101.16;5114145;28;20177;-74
2022/07/14 00:10:56;;;;;;;4.50;4.10;;;;;;;18.04;100.00;66090.00;5113846;28;20192;-74
2022/07/14 00:13:22;;;;;;;5.63;3.90;;;;;;;18.04;100.00;66090.00;5113769;28;20572;-74
2022/07/14 00:15:49;;;;;;;4.03;3.83;;;;;;;18.00;100.00;66086.09;5113795;28;20189;-74
2022/07/14 00:18:15;;;;;;;4.03;3.83;;;;;;;18.01;100.00;66086.66;5114020;28;20189;-74
2022/07/14 00:20:42;;;;;;;8.57;4.37;;;;;;;17.94;100.00;66078.84;5113703;28;20191;-74
2022/07/14 00:23:08;;;;;;;3.63;3.60;;;;;;;17.88;100.00;66075.88;5113540;28;20270;-74
2022/07/14 00:25:35;;;;;;;7.07;3.93;;;;;;;17.86;100.00;66067.84;5113694;28;20249;-74
2022/07/14 00:28:02;;;;;;;4.27;4.13;;;;;;;17.86;100.00;66071.03;5113657;28;20185;-74
2022/07/14 00:30:28;;;;;;;3.67;3.57;;;;;;;17.84;100.00;66068.25;5113920;28;20617;-74
2022/07/14 00:32:55;;;;;;;4.43;4.20;;;;;;;17.84;100.00;66066.16;5095351;28;20246;-73
2022/07/14 00:35:22;;;;;;;4.27;3.77;;;;;;;17.77;100.00;66060.44;5114144;28;20183;-73
2022/07/14 00:37:49;;;;;;;4.67;4.27;;;;;;;17.72;100.00;66052.78;5113858;28;20177;-73
2022/07/14 00:40:15;;;;;;;4.97;4.13;;;;;;;17.73;100.00;66055.97;5113839;28;20712;-73
2022/07/14 00:42:48;;;;;;;4.37;4.17;;;;;;;17.70;100.00;66052.59;5113676;28;20734;-73
2022/07/14 00:45:20;;;;;;;3.50;3.47;;;;;;;17.65;100.00;66047.03;5113836;28;20197;-73
2022/07/14 00:47:48;;;;;;;5.00;4.50;;;;;;;17.62;100.00;66041.59;5113530;28;20177;-73
2022/07/14 00:50:16;;;;;;;3.40;3.27;;;;;;;17.56;100.00;66037.53;5096344;28;20207;-73
2022/07/14 00:52:45;;;;;;;4.50;4.20;;;;;;;17.53;100.00;66031.56;5095131;28;20242;-73
2022/07/14 00:55:14;;;;;;;4.50;4.40;;;;;;;17.47;100.00;66020.19;5117774;28;20598;-73
2022/07/14 00:57:41;;;;;;;4.77;4.53;;;;;;;17.45;100.00;66027.91;5099185;28;20228;-73
2022/07/14 01:00:12;;;;;;;3.97;3.77;;;;;;;17.39;100.00;66019.16;5117438;28;20189;-73
2022/07/14 01:02:38;;;;;;;4.77;4.10;;;;;;;17.30;100.00;66017.53;5117822;28;20253;-73
2022/07/14 01:05:06;;;;;;;4.07;3.67;;;;;;;17.29;100.00;66008.56;5098975;28;20577;-73
2022/07/14 01:07:33;;;;;;;3.63;3.53;;;;;;;17.29;100.00;66008.00;5098998;28;20188;-73
2022/07/14 01:09:59;;;;;;;4.03;3.83;;;;;;;17.25;100.00;66017.22;5117214;28;20725;-73
2022/07/14 01:12:26;;;;;;;7.53;4.30;;;;;;;17.20;100.00;66003.19;5098989;28;20184;-73
2022/07/14 01:14:54;;;;;;;3.40;3.20;;;;;;;17.18;100.00;66000.97;5098798;28;20211;-73
2022/07/14 01:17:21;;;;;;;5.67;3.97;;;;;;;17.16;100.00;65999.31;5117467;28;20238;-73
2022/07/14 01:19:48;;;;;;;4.43;4.23;;;;;;;17.11;100.00;65980.63;5117053;28;20201;-73
2022/07/14 01:22:16;;;;;;;4.80;3.60;;;;;;;17.07;100.00;65984.00;5098644;28;20567;-73
2022/07/14 01:24:42;;;;;;;4.33;4.10;;;;;;;;;;5116974;28;20193;-74
2022/07/14 01:27:09;;;;;;;4.20;3.87;;;;;;;17.03;100.00;65982.19;5116923;28;20262;-74
2022/07/14 01:29:35;;;;;;;3.90;3.80;;;;;;;16.99;100.00;65977.72;5116873;28;20712;-74
2022/07/14 01:32:03;;;;;;;5.30;4.70;;;;;;;16.97;100.00;65983.38;5116816;28;20173;-73
2022/07/14 01:34:29;;;;;;;4.47;4.10;;;;;;;16.94;100.00;65969.53;5117263;28;20604;-73
2022/07/14 01:36:57;;;;;;;6.43;3.37;;;;;;;16.88;100.00;65968.09;5116751;28;20185;-73
2022/07/14 01:39:23;;;;;;;6.90;3.77;;;;;;;;;;5116937;28;20185;-73
2022/07/14 01:41:49;;;;;;;3.90;3.57;;;;;;;16.86;100.00;65961.19;5098611;28;20606;-73
2022/07/14 01:44:16;;;;;;;4.30;4.00;;;;;;;16.85;100.00;65960.06;5116441;28;20217;-73
2022/07/14 01:46:43;;;;;;;5.77;3.93;;;;;;;16.79;100.00;65953.38;5098249;28;20198;-73
2022/07/14 01:49:09;;;;;;;5.93;4.37;;;;;;;16.79;100.00;65969.09;5098170;28;20204;-73
2022/07/14 01:51:36;;;;;;;5.77;3.60;;;;;;;16.75;100.00;65949.47;5098200;28;20249;-73
2022/07/14 01:54:06;;;;;;;4.17;3.87;;;;;;;16.74;100.00;65953.59;5098617;28;20304;-73
2022/07/14 01:56:39;;;;;;;3.80;3.50;;;;;;;16.72;100.00;65943.50;5117207;28;20170;-73
2022/07/14 01:59:07;;;;;;;7.30;4.93;;;;;;;16.73;100.00;65944.63;5098902;28;20243;-73
2022/07/14 02:01:39;;;;;;;4.87;4.33;;;;;;;16.74;100.00;65953.59;5098018;28;20235;-73
2022/07/14 02:04:17;;;;;;;3.97;3.87;;;;;;;16.71;100.00;65945.00;5097819;28;20220;-73
2022/07/14 02:06:49;;;;;;;5.30;3.47;;;;;;;16.73;100.00;65947.25;5097232;28;20193;-73
2022/07/14 02:12:21;;;;;;;3.87;3.37;;;;;;;;;;5097756;28;20209;-73
2022/07/14 02:14:49;;;;;;;4.50;4.20;;;;;;;16.63;100.00;65935.50;5115917;28;20204;-73
2022/07/14 02:17:16;;;;;;;11.53;3.67;;;;;;;16.58;100.00;65930.50;5097706;28;20189;-73
2022/07/14 02:19:42;;;;;;;9.43;4.47;;;;;;;16.63;100.00;65938.13;5115907;28;20216;-73
2022/07/14 02:22:08;;;;;;;4.47;3.40;;;;;;;16.57;100.00;65926.75;5097518;28;20246;-73
2022/07/14 02:24:35;;;;;;;5.63;3.13;;;;;;;16.56;100.00;65928.25;5097501;28;20213;-73
2022/07/14 02:27:01;;;;;;;5.60;3.57;;;;;;;16.55;100.00;65929.78;5097472;28;20197;-73
2022/07/14 02:29:28;;;;;;;4.60;2.97;;;;;;;16.54;100.00;65923.44;5097437;28;20197;-73
2022/07/14 02:31:54;;;;;;;4.10;3.77;;;;;;;16.49;100.00;65923.09;5097431;28;20239;-73
2022/07/14 02:34:21;;;;;;;3.33;3.07;;;;;;;16.46;100.00;65917.13;5097252;28;20689;-74
2022/07/14 02:36:51;;;;;;;4.90;4.10;;;;;;;16.46;100.00;65922.38;5097244;28;20242;-73
2022/07/14 02:39:18;;;;;;;5.43;3.67;;;;;;;16.39;100.00;65909.88;5115506;28;20197;-73
2022/07/14 02:41:44;;;;;;;3.27;3.17;;;;;;;16.36;100.00;65905.97;5097236;28;20238;-73
2022/07/14 02:44:13;;;;;;;3.80;3.70;;;;;;;16.34;100.00;65906.38;5097259;28;20220;-73
2022/07/14 02:46:40;;;;;;;5.47;3.47;;;;;;;16.32;100.00;65912.56;5097943;28;20212;-73
2022/07/14 02:49:07;;;;;;;7.93;4.43;;;;;;;16.29;100.00;65900.81;5097001;28;20199;-73
2022/07/14 02:51:37;;;;;;;7.47;4.13;;;;;;;16.30;100.00;65896.69;5097051;28;20182;-73
2022/07/14 02:54:04;;;;;;;7.93;4.10;;;;;;;16.26;100.00;65895.41;5115152;28;20197;-73
2022/07/14 02:56:31;;;;;;;9.80;3.90;;;;;;;16.24;100.00;65895.81;5096924;28;20216;-73
2022/07/14 02:58:58;;;;;;;3.83;3.63;;;;;;;16.20;100.00;65899.75;5096855;28;20201;-73
2022/07/14 03:01:26;;;;;;;7.07;4.00;;;;;;;16.19;100.00;65888.16;5097341;28;20534;-73
2022/07/14 03:03:52;;;;;;;5.33;4.20;;;;;;;16.17;100.00;65885.94;5096539;28;20698;-72
2022/07/14 03:06:19;;;;;;;6.07;4.20;;;;;;;16.14;100.00;65887.81;5114854;28;20221;-73
2022/07/14 03:08:50;;;;;;;5.60;3.90;;;;;;;16.12;100.00;65887.66;5096945;28;20185;-73
2022/07/14 03:11:18;;;;;;;4.00;3.70;;;;;;;16.13;100.00;65884.09;5096608;28;20281;-73
2022/07/14 03:13:45;;;;;;;7.07;3.80;;;;;;;16.11;100.00;65884.50;5096439;28;20315;-73
2022/07/14 03:16:13;;;;;;;3.57;3.27;;;;;;;16.12;100.00;65887.66;5096476;28;20190;-73
2022/07/14 03:18:41;;;;;;;10.53;4.93;;;;;;;;;;5096483;28;20193;-73
2022/07/14 03:21:11;;;;;;;8.33;3.60;;;;;;;16.10;100.00;65880.19;5096415;28;20197;-73
2022/07/14 03:23:41;;;;;;;4.03;3.73;;;;;;;16.05;100.00;65877.81;5096859;28;20221;-73
2022/07/14 03:26:13;;;;;;;9.80;4.23;;;;;;;16.07;100.00;65880.03;5096617;28;20677;-73
2022/07/14 03:28:40;;;;;;;7.77;5.00;;;;;;;16.01;100.00;65868.13;5096302;28;20197;-73
2022/07/14 03:31:07;;;;;;;10.80;4.07;;;;;;;15.96;100.00;65863.09;5096275;28;20200;-73
2022/07/14 03:33:34;;;;;;;4.33;3.97;;;;;;;15.96;100.00;65859.94;5096142;28;20229;-73
2022/07/14 03:36:02;;;;;;;6.10;3.60;;;;;;;15.96;100.00;65868.34;5114360;28;20242;-73
2022/07/14 03:38:31;;;;;;;5.57;4.33;;;;;;;15.92;100.00;65863.88;5097003;28;20189;-73
2022/07/14 03:41:03;;;;;;;6.23;4.20;;;;;;;15.92;100.00;65861.25;5114327;28;20172;-75
2022/07/14 03:43:33;;;;;;;5.23;3.23;;;;;;;15.89;100.00;65860.53;5096615;28;20227;-73
2022/07/14 03:46:02;;;;;;;6.60;3.43;;;;;;;15.90;100.00;65853.25;5095923;28;20192;-73
2022/07/14 03:48:29;;;;;;;6.73;3.87;;;;;;;15.89;100.00;65857.38;5095982;28;20189;-73
2022/07/14 03:51:00;;;;;;;3.30;3.10;;;;;;;15.82;100.00;65849.56;5096194;28;20708;-73
2022/07/14 03:53:30;;;;;;;5.67;4.73;;;;;;;15.80;100.00;65844.72;5096196;28;20229;-73
2022/07/14 03:55:57;;;;;;;6.47;4.00;;;;;;;15.78;100.00;65843.06;5096394;28;20197;-73
2022/07/14 03:58:25;;;;;;;8.30;3.87;;;;;;;15.76;100.00;65840.81;5095950;28;20197;-73
2022/07/14 04:00:52;;;;;;;4.33;3.80;;;;;;;15.75;100.00;65839.16;5095830;28;20189;-73
2022/07/14 04:03:19;;;;;;;7.77;3.80;;;;;;;;;;5113946;28;20641;-73
2022/07/14 04:05:46;;;;;;;8.33;3.20;;;;;;;15.75;100.00;65839.72;5095761;28;20228;-73
2022/07/14 04:08:15;;;;;;;5.20;3.70;;;;;;;15.72;100.00;65833.78;5095738;28;20189;-73
2022/07/14 04:10:49;;;;;;;2.57;2.47;;;;;;;15.71;100.00;65837.88;5095669;28;20722;-73
2022/07/14 04:13:15;;;;;;;4.50;4.10;;;;;;;15.72;100.00;65841.03;5095601;28;20254;-73
2022/07/14 04:15:42;;;;;;;6.50;4.00;;;;;;;15.70;100.00;65834.16;5096472;28;20181;-75
2022/07/14 04:18:09;;;;;;;4.13;3.47;;;;;;;15.67;100.00;65828.75;5095509;28;20637;-75
2022/07/14 04:20:36;;;;;;;5.40;3.93;;;;;;;15.64;100.00;65828.03;5095537;28;20200;-74
2022/07/14 04:23:04;;;;;;;6.10;3.67;;;;;;;15.63;100.00;65826.34;5095919;28;20217;-74
2022/07/14 04:25:31;;;;;;;5.17;4.30;;;;;;;15.63;100.00;65836.81;5078891;28;20173;-74
2022/07/14 04:27:57;;;;;;;7.07;4.07;;;;;;;15.57;100.00;65820.22;5115300;28;20226;-74
2022/07/14 04:30:24;;;;;;;3.30;3.20;;;;;;;15.58;100.00;65821.34;5102527;28;20189;-75
2022/07/14 04:32:50;;;;;;;4.43;4.07;;;;;;;;;;5120593;28;20173;-74
2022/07/14 04:35:19;;;;;;;6.33;4.20;;;;;;;15.55;100.00;65822.66;5102428;28;20189;-75
2022/07/14 04:37:45;;;;;;;6.03;4.00;;;;;;;15.52;100.00;65814.09;5102177;28;20598;-76
2022/07/14 04:40:26;;;;;;;7.77;3.70;;;;;;;15.49;100.00;65808.69;5102071;28;20192;-75
2022/07/14 04:42:52;;;;;;;4.47;3.40;;;;;;;15.48;100.00;65810.19;5101916;28;20196;-74
2022/07/14 04:45:20;;;;;;;4.60;4.20;;;;;;;15.49;100.00;65816.53;5102021;28;20201;-74
2022/07/14 04:47:48;;;;;;;5.87;3.40;;;;;;;;;;5102050;28;20198;-75
2022/07/14 04:52:59;;;;;;;4.23;3.93;;;;;;;15.54;100.00;65818.94;5120741;28;20220;-75
2022/07/14 04:55:43;;;;;;;6.90;4.13;;;;;;;15.52;100.00;65835.56;5102804;28;20250;-75
2022/07/14 04:58:25;;;;;;;10.47;4.20;;;;;;;15.53;100.00;65817.81;5101989;28;20184;-75
2022/07/14 05:00:58;;;;;;;8.53;4.00;;;;;;;15.56;100.00;65818.53;5102209;28;20185;-76
2022/07/14 05:03:29;;;;;;;5.67;4.03;;;;;;;15.58;100.00;65831.78;5101708;28;20224;-75
2022/07/14 05:05:55;;;;;;;4.40;4.00;;;;;;;15.56;100.00;65819.09;5120022;28;20193;-75
2022/07/14 05:08:23;;;;;;;12.70;5.67;;;;;;;15.58;100.00;65820.78;5101834;28;20234;-75
2022/07/14 05:10:49;;;;;;;4.40;3.63;;;;;;;15.66;100.00;65827.09;5101809;28;20200;-75
2022/07/14 05:13:16;;;;;;;6.77;4.10;;;;;;;15.76;100.00;65842.88;5101685;28;20714;-75
2022/07/14 05:15:43;;;;;;;4.10;3.67;;;;;;;15.71;100.00;65834.69;5101749;28;20188;-75
2022/07/14 05:18:10;;;;;;;8.10;4.93;;;;;;;15.73;100.00;65837.50;5101796;28;20207;-75
2022/07/14 05:20:38;;;;;;;5.13;3.83;;;;;;;15.81;100.00;65843.22;5102610;28;20192;-74
2022/07/14 05:23:04;;;;;;;8.00;4.07;;;;;;;15.80;100.00;65842.13;5101624;28;20625;-75
2022/07/14 05:25:31;;;;;;;5.50;4.30;;;;;;;15.80;100.00;65845.28;5101527;28;20200;-75
2022/07/14 05:27:57;;;;;;;4.63;4.23;;;;;;;15.83;100.00;65859.09;5101679;28;20724;-74
2022/07/14 05:30:27;;;;;;;8.47;4.03;;;;;;;15.89;100.00;65852.13;5101550;28;20246;-74
2022/07/14 05:32:57;;;;;;;7.33;3.87;;;;;;;15.91;100.00;65860.16;5101707;28;20556;-75
2022/07/14 05:35:24;;;;;;;4.63;3.47;;;;;;;;;;5102138;28;20239;-75
2022/07/14 05:37:51;;;;;;;8.20;4.27;;;;;;;15.98;100.00;65864.22;5101599;28;20583;-74
2022/07/14 05:40:18;;;;;;;4.07;3.50;;;;;;;15.95;100.00;65862.00;5098363;28;20218;-74
2022/07/14 05:42:46;;;;;;;6.07;3.87;;;;;;;15.96;100.00;65863.09;5098284;28;20193;-75
2022/07/14 05:45:13;;;;;;;4.17;3.87;;;;;;;15.94;100.00;65860.88;5098263;28;20690;-75
2022/07/14 05:47:42;;;;;;;7.43;3.83;;;;;;;15.95;100.00;65869.28;5098189;28;20204;-75
2022/07/14 05:50:10;;;;;;;4.97;3.93;;;;;;;15.99;100.00;65865.88;5098814;28;20185;-76
2022/07/14 05:52:36;;;;;;;4.73;4.10;;;;;;;16.02;100.00;65879.16;5098148;28;20201;-75
2022/07/14 05:55:03;;;;;;;9.23;3.63;;;;;;;16.00;100.00;65874.84;5116348;28;20177;-75
2022/07/14 05:57:30;;;;;;;4.37;3.97;;;;;;;16.05;100.00;65872.00;5098941;28;20239;-75
2022/07/14 06:00:06;;;;;;;8.43;3.97;;;;;;;;;;5098050;28;20180;-75
2022/07/14 06:02:40;;;;;;;10.10;3.80;;;;;;;16.10;100.00;65867.66;5116227;28;20172;-75
2022/07/14 06:05:10;;;;;;;3.40;3.10;;;;;;;16.13;100.00;65889.34;5097745;28;20626;-75
2022/07/14 06:07:37;;;;;;;3.93;3.53;;;;;;;16.17;100.00;65883.31;5098664;28;20189;-75
2022/07/14 06:10:05;;;;;;;10.23;4.40;;;;;;;16.14;100.00;65887.81;5097797;28;20201;-74
2022/07/14 06:12:32;;;;;;;4.67;4.20;;;;;;;16.21;100.00;65895.63;5097804;28;20189;-75
2022/07/14 06:14:59;;;;;;;4.90;3.33;;;;;;;16.27;100.00;65914.28;5097689;28;20205;-76
2022/07/14 06:17:25;;;;;;;7.83;4.53;;;;;;;16.33;100.00;65902.66;5097781;28;20186;-75
2022/07/14 06:19:52;;;;;;;4.53;3.60;;;;;;;16.41;100.00;65919.41;5115889;28;20193;-74
2022/07/14 06:22:19;;;;;;;5.83;3.77;;;;;;;16.46;100.00;65914.50;5097622;28;20630;-75
2022/07/14 06:24:45;;;;;;;6.90;4.37;;;;;;;16.54;100.00;65926.03;5097337;28;20690;-74
2022/07/14 06:27:17;;;;;;;7.03;3.93;;;;;;;16.65;100.00;65937.75;5097551;28;20189;-74
2022/07/14 06:29:45;;;;;;;8.17;4.03;;;;;;;16.81;100.00;65952.97;5097499;28;20532;-75
2022/07/14 06:32:11;;;;;;;6.90;3.90;;;;;;;16.84;100.00;65963.63;5097408;28;20189;-75
2022/07/14 06:34:40;;;;;;;5.53;4.47;;;;;;;16.95;100.00;65978.53;5097207;28;20208;-75
2022/07/14 06:37:13;;;;;;;6.00;3.40;;;;;;;16.96;100.00;65971.75;5097327;28;20655;-75
2022/07/14 06:39:41;;;;;;;5.57;4.07;;;;;;;17.05;100.00;65984.41;5097215;28;20528;-75
2022/07/14 06:42:09;;;;;;;5.80;3.53;;;;;;;;;;5097123;28;20677;-75
2022/07/14 06:44:42;;;;;;;5.43;3.87;;;;;;;17.20;100.00;65995.34;5096953;28;20209;-75
2022/07/14 06:47:08;;;;;;;3.60;3.30;;;;;;;17.28;100.00;66014.75;5097167;28;20200;-75
2022/07/14 06:49:35;;;;;;;3.70;3.07;;;;;;;17.38;100.00;66014.84;5097040;28;20185;-75
2022/07/14 06:52:02;;;;;;;7.77;3.00;;;;;;;17.52;100.00;66033.09;5096719;28;20238;-76
2022/07/14 06:54:31;;;;;;;3.17;2.77;;;;;;;17.53;100.00;66034.19;5097147;28;20213;-75
2022/07/14 06:56:57;;;;;;;8.43;3.70;;;;;;;17.64;100.00;66046.47;5115199;28;20242;-75
2022/07/14 06:59:24;;;;;;;7.80;3.97;;;;;;;17.55;100.00;66041.69;5115167;28;20590;-75
2022/07/14 07:01:50;;;;;;;4.70;2.77;;;;;;;17.60;100.00;66042.56;5115336;28;20656;-76
2022/07/14 07:04:17;;;;;;;9.03;3.73;;;;;;;17.63;99.80;66042.16;5114934;28;20217;-76
2022/07/14 07:06:51;;;;;;;4.13;3.67;;;;;;;17.65;99.44;66044.41;5114908;28;20189;-75
2022/07/14 07:09:19;;;;;;;7.97;4.37;;;;;;;17.65;99.50;66052.28;5114975;28;20246;-76
2022/07/14 07:11:49;;;;;;;11.50;3.70;;;;;;;17.69;99.60;66054.66;5115440;28;20200;-76
2022/07/14 07:14:17;;;;;;;5.17;3.57;;;;;;;17.77;99.52;66060.44;5114766;28;20201;-75
2022/07/14 07:16:45;;;;;;;7.73;3.30;;;;;;;17.88;99.06;66070.63;5114770;28;20223;-76
2022/07/14 07:19:11;;;;;;;3.67;2.87;;;;;;;17.88;98.56;66078.50;5114740;28;20213;-75
2022/07/14 07:21:38;;;;;;;4.53;3.00;;;;;;;17.89;98.28;66079.06;5114772;28;20216;-75
2022/07/14 07:24:05;;;;;;;4.40;2.50;;;;;;;17.95;98.43;66082.59;5113600;27;20255;-75
2022/07/14 07:26:33;;;;;;;3.10;2.67;;;;;;;17.99;98.43;66092.28;5114305;28;20220;-74
2022/07/14 07:28:59;;;;;;;6.83;3.43;;;;;;;;;;5114467;28;20563;-74
2022/07/14 07:31:29;;;;;;;7.27;2.97;;;;;;;18.28;96.70;66114.13;5114774;28;20185;-75
2022/07/14 07:33:56;;;;;;;7.30;3.83;;;;;;;18.26;95.40;66114.53;5114353;28;20246;-75
2022/07/14 07:36:23;;;;;;;7.73;3.10;;;;;;;18.30;94.10;66119.00;5114422;28;20247;-76
2022/07/14 07:38:49;;;;;;;8.90;3.40;;;;;;;18.17;93.60;66107.13;5114386;28;20205;-76
2022/07/14 07:41:16;;;;;;;6.40;3.83;;;;;;;18.18;94.04;66105.06;5115175;28;20553;-76
2022/07/14 07:43:42;;;;;;;3.70;3.00;;;;;;;18.18;94.39;66105.63;5114246;28;20240;-75
2022/07/14 07:46:09;;;;;;;5.90;2.30;;;;;;;18.22;92.27;66112.16;5114448;28;20228;-75
2022/07/14 07:48:35;;;;;;;2.17;2.00;;;;;;;;;;5114165;28;20185;-76
2022/07/14 07:51:02;;;;;;;2.33;2.13;;;;;;;18.13;84.81;66103.22;5114687;28;20194;-75
2022/07/14 07:53:29;;;;;;;6.83;1.47;;;;;;;18.18;81.70;66097.19;5114231;28;20241;-75
2022/07/14 07:55:55;;;;;;;1.97;1.87;;;;;;;;;;5114064;28;20227;-76
2022/07/14 07:58:22;;;;;;;2.00;1.90;;;;;;;18.22;82.45;66110.09;5116686;27;20643;-75
2022/07/14 08:00:48;;;;;;;3.10;1.57;;;;;;;18.39;83.28;66126.44;5109406;27;20224;-75
2022/07/14 08:03:15;;;;;;;1.93;1.77;;;;;;;18.41;81.42;66130.72;5115565;27;20289;-76
2022/07/14 08:05:42;;;;;;;1.70;1.43;;;;;;;18.36;80.62;66125.72;5112792;28;20273;-76
2022/07/14 08:08:17;;;;;;;1.80;1.73;;;;;;;18.45;81.22;66135.19;5111124;27;20180;-74
2022/07/14 08:10:43;;;;;;;7.47;2.27;;;;;;;;;;5110270;28;20220;-76
2022/07/14 08:13:10;;;;;;;1.60;1.50;;;;;;;18.36;78.28;66130.97;5112276;28;20582;-75
2022/07/14 08:15:37;;;;;;;1.80;1.70;;;;;;;18.36;78.54;66128.34;5107404;27;20211;-75
2022/07/14 08:18:04;;;;;;;2.60;2.40;;;;;;;18.41;78.77;66135.97;5110880;27;20238;-75
2022/07/14 08:20:30;;;;;;;1.50;1.50;;;;;;;18.53;81.20;66144.13;5113141;28;20362;-74
2022/07/14 08:22:57;;;;;;;1.60;1.60;;;;;;;18.66;80.87;66163.91;5100694;28;20247;-76
2022/07/14 08:25:24;;;;;;;2.67;2.00;;;;;;;;;;5112271;28;20258;-76
2022/07/14 08:27:51;;;;;;;1.50;1.50;;;;;;;18.70;72.73;66167.81;5114002;28;20676;-75
2022/07/14 08:30:17;;;;;;;2.83;1.37;;;;;;;18.76;72.41;66169.25;5113688;28;20220;-75
2022/07/14 08:32:49;;;;;;;2.70;1.73;;;;;;;18.88;75.53;66185.28;5113082;28;20231;-74
2022/07/14 08:35:23;;;;;;;2.50;1.83;;;;;;;19.02;75.23;66200.38;5110812;28;20188;-75
2022/07/14 08:37:51;;;;;;;3.03;1.47;;;;;;;19.07;73.03;66203.31;5119912;28;20184;-75
2022/07/14 08:40:23;;;;;;;1.30;1.30;;;;;;;19.03;71.96;66195.66;5112231;28;20655;-76
2022/07/14 08:42:51;;;;;;;1.60;1.60;;;;;;;19.07;67.32;66200.13;5115219;28;20276;-75
2022/07/14 08:45:20;;;;;;;2.93;2.03;;;;;;;18.96;69.16;66194.22;5110443;28;20233;-75
2022/07/14 08:47:47;;;;;;;2.43;1.33;;;;;;;19.10;68.21;66206.13;5112108;28;20238;-75
2022/07/14 08:50:20;;;;;;;1.90;1.43;;;;;;;19.16;68.33;66210.19;5115570;28;20231;-75
2022/07/14 08:52:47;;;;;;;2.00;1.33;;;;;;;19.13;69.58;66215.28;5111689;28;20268;-75
2022/07/14 08:55:15;;;;;;;1.60;1.50;;;;;;;;;;5116639;28;20177;-75
2022/07/14 08:57:42;;;;;;;2.27;1.30;;;;;;;19.25;73.04;66220.22;5111328;28;20197;-74
2022/07/14 09:00:15;;;;;;;2.87;2.00;;;;;;;19.34;73.38;66234.97;5106440;28;20686;-76
2022/07/14 09:02:47;;;;;;;1.40;1.30;;;;;;;;;;5103321;28;20350;-75
2022/07/14 09:05:33;;;;;;;1.77;1.70;;;;;;;19.45;69.39;66244.66;5102743;28;20218;-74
2022/07/14 09:07:59;;;;;;;1.23;1.23;;;;;;;19.52;71.15;66255.09;5107053;28;20225;-74
2022/07/14 09:10:28;;;;;;;1.30;1.30;;;;;;;19.49;70.51;66246.47;5115241;28;20540;-75
2022/07/14 09:13:19;;;;;;;2.83;1.87;;;;;;;19.49;70.78;66252.28;5119142;28;20251;-76
2022/07/14 09:15:48;;;;;;;2.03;2.00;;;;;;;;;;5118267;27;20653;-75
2022/07/14 09:18:25;;;;;;;1.70;1.67;;;;;;;;;;5116565;28;20219;-77
2022/07/14 09:20:54;;;;;;;1.87;1.77;;;;;;;19.56;70.57;66256.94;5114898;28;20235;-73
2022/07/14 09:23:28;;;;;;;5.13;2.73;;;;;;;19.55;71.05;66253.19;5111356;27;20268;-73
2022/07/14 09:26:16;;;;;;;1.30;1.30;;;;;;;19.55;72.14;66255.25;5115261;28;20558;-74
2022/07/14 09:28:43;;;;;;;1.83;1.83;;;;;;;;;;5123388;27;20197;-76
2022/07/14 09:31:25;;;;;;;2.53;1.93;;;;;;;;;;5136797;27;20233;-75
2022/07/14 09:33:55;;;;;;;3.20;1.70;;;;;;;19.52;73.17;66253.03;5136085;27;20725;-75
2022/07/14 09:36:26;;;;;;;3.03;1.70;;;;;;;;;;5136552;27;20260;-75
2022/07/14 09:38:57;;;;;;;11.13;1.73;;;;;;;19.66;71.70;66265.50;5136330;27;20206;-75
2022/07/14 09:41:24;;;;;;;1.20;1.20;;;;;;;;;;5137482;27;20632;-75
2022/07/14 09:44:10;;;;;;;2.50;1.50;;;;;;;19.77;67.16;66277.22;5137555;27;20257;-76
2022/07/14 09:46:43;;;;;;;1.40;1.40;;;;;;;19.74;68.13;66273.88;5137165;27;20222;-75
2022/07/14 09:49:10;;;;;;;8.33;1.70;;;;;;;;;;5137405;27;20172;-76
2022/07/14 09:51:59;;;;;;;3.60;1.50;;;;;;;;;;5137632;27;20176;-76
2022/07/14 09:54:48;;;;;;;4.37;1.30;;;;;;;;;;5110259;27;20248;-74
2022/07/14 09:57:14;;;;;;;1.30;1.30;;;;;;;20.08;66.72;66311.31;5116179;27;20294;-75
2022/07/14 09:59:49;;;;;;;1.50;1.50;;;;;;;20.14;65.56;66320.09;5116266;27;20197;-75
2022/07/14 10:02:29;;;;;;;2.07;1.97;;;;;;;20.20;66.24;66326.78;5116157;28;20663;-76
2022/07/14 10:05:07;;;;;;;1.80;1.70;;;;;;;;;;5116214;28;20217;-75
2022/07/14 10:07:42;;;;;;;2.20;2.00;;;;;;;20.22;67.54;66329.03;5116199;28;20263;-75
2022/07/14 10:10:10;;;;;;;1.70;1.63;;;;;;;;;;5116146;28;20226;-76
2022/07/14 10:12:37;;;;;;;2.53;1.70;;;;;;;;;;5116058;28;20189;-76
2022/07/14 10:15:06;;;;;;;1.97;1.20;;;;;;;20.38;66.16;66346.38;5116602;28;20184;-76
2022/07/14 10:17:37;;;;;;;1.73;1.70;;;;;;;20.41;68.00;66347.63;5116249;28;20192;-75
2022/07/14 10:20:06;;;;;;;4.87;2.13;;;;;;;;;;5112524;27;20184;-75
2022/07/14 10:22:32;;;;;;;4.10;1.77;;;;;;;;;;5110609;27;20670;-75
2022/07/14 10:25:00;;;;;;;2.00;1.90;;;;;;;;;;5091137;28;20292;-75
2022/07/14 10:27:39;;;;;;;3.80;1.53;;;;;;;20.88;63.63;66399.09;5113484;27;20191;-75
2022/07/14 10:30:06;;;;;;;1.70;1.60;;;;;;;20.82;63.02;66395.03;5111979;27;20257;-75
2022/07/14 10:32:35;;;;;;;1.40;1.40;;;;;;;20.91;63.34;66405.09;5112407;28;20590;-75
2022/07/14 10:35:20;;;;;;;1.70;1.50;;;;;;;20.85;62.72;66409.47;5106957;28;20763;-74
2022/07/14 10:38:23;;;;;;;1.33;1.23;;;;;;;20.75;63.32;66390.38;5110153;28;20234;-75
2022/07/14 10:40:54;;;;;;;2.20;2.10;;;;;;;;;;5115827;28;20222;-75
2022/07/14 10:43:27;;;;;;;6.17;1.97;;;;;;;20.85;62.27;66401.56;5115676;28;20237;-76
2022/07/14 10:45:55;;;;;;;1.90;1.40;;;;;;;;;;5115340;28;20193;-76
2022/07/14 10:48:28;;;;;;;2.70;1.33;;;;;;;;;;5115680;28;20228;-76
2022/07/14 10:51:13;;;;;;;1.90;1.50;;;;;;;21.16;61.37;66430.41;5115583;28;20209;-76
2022/07/14 10:53:59;;;;;;;1.53;1.43;;;;;;;21.21;64.25;66434.88;5115574;28;20227;-75
2022/07/14 10:56:46;;;;;;;1.60;1.50;;;;;;;21.36;63.73;66454.31;5115452;28;20634;-75
2022/07/14 10:59:24;;;;;;;5.13;2.23;;;;;;;;;;5115106;28;20220;-76
2022/07/14 11:02:21;;;;;;;1.50;1.50;;;;;;;;;;5115136;28;20212;-75
2022/07/14 11:05:01;;;;;;;1.37;1.33;;;;;;;21.44;58.65;66460.66;5094397;28;20225;-77
2022/07/14 11:07:40;;;;;;;7.73;1.23;;;;;;;;;;5115019;28;20216;-75
2022/07/14 11:10:19;;;;;;;1.30;1.30;;;;;;;;;;5097517;28;20288;-74
2022/07/14 11:13:06;;;;;;;1.83;1.83;;;;;;;21.55;60.37;66472.38;5114814;28;20595;-76
2022/07/14 11:16:11;;;;;;;2.10;1.57;;;;;;;21.49;59.33;66466.22;5114813;28;20218;-76
2022/07/14 11:18:42;;;;;;;1.53;1.43;;;;;;;21.40;59.04;66456.72;5012403;28;20188;-75
2022/07/14 11:21:18;;;;;;;1.40;1.40;;;;;;;;;;5012499;28;20196;-75
2022/07/14 11:23:50;;;;;;;2.47;1.47;;;;;;;21.55;57.25;66472.94;5071113;28;20248;-77
2022/07/14 11:26:31;;;;;;;2.07;1.97;;;;;;;21.64;59.07;66485.66;5114909;28;20216;-75
2022/07/14 11:28:58;;;;;;;1.77;1.77;;;;;;;;;;5114560;28;20185;-75
2022/07/14 11:31:25;;;;;;;2.00;1.80;;;;;;;21.64;56.50;66485.66;5113457;28;20224;-76
2022/07/14 11:36:40;;;;;;;1.53;1.53;;;;;;;21.98;56.14;66520.50;5110335;28;20193;-76
2022/07/14 11:39:22;;;;;;;2.40;1.40;;;;;;;22.07;54.73;66529.47;5107595;28;20659;-77
2022/07/14 11:41:50;;;;;;;1.30;1.30;;;;;;;;;;5111882;28;20550;-77
2022/07/14 11:44:35;;;;;;;1.60;1.60;;;;;;;;;;5113685;28;20213;-77
2022/07/14 11:47:03;;;;;;;1.70;1.60;;;;;;;;;;5108414;28;20189;-77
2022/07/14 11:49:31;;;;;;;1.80;1.70;;;;;;;22.63;56.26;66591.06;5103466;28;20238;-77
2022/07/14 11:51:58;;;;;;;3.83;2.60;;;;;;;;;;5112716;28;20224;-75
2022/07/14 11:54:26;;;;;;;1.43;1.33;;;;;;;;;;5099958;28;20232;-77
2022/07/14 11:57:03;;;;;;;1.63;1.47;;;;;;;;;;5106662;28;20224;-76
2022/07/14 11:59:30;;;;;;;1.40;1.40;;;;;;;;;;5109050;28;20188;-77
2022/07/14 12:02:10;;;;;;;3.23;1.30;;;;;;;22.51;52.89;66578.78;5109828;28;20271;-77
2022/07/14 12:04:58;;;;;;;5.20;1.23;;;;;;;22.39;53.48;66559.47;5093363;28;20231;-76
2022/07/14 12:07:41;;;;;;;1.53;1.53;;;;;;;22.39;52.53;66570.63;5093899;28;20608;-77
2022/07/14 12:10:09;;;;;;;2.83;1.87;;;;;;;22.30;53.54;66557.34;5093897;28;20213;-77
2022/07/14 12:12:53;;;;;;;2.33;2.17;;;;;;;;;;5094069;28;20644;-77
2022/07/14 12:15:24;;;;;;;1.60;1.60;;;;;;;22.41;53.32;66570.19;5093909;28;20523;-77